createdAt,value
2022-12-19T00:01:17.380Z,17.73
2022-12-19T00:03:48.028Z,18.90
2022-12-19T00:06:20.194Z,16.47
2022-12-19T00:08:51.423Z,19.43
2022-12-19T00:11:23.371Z,17.97
2022-12-19T00:13:52.417Z,18.07
2022-12-19T00:16:23.218Z,18.07
2022-12-19T00:18:54.843Z,18.60
2022-12-19T00:21:27.835Z,17.77
2022-12-19T00:23:56.328Z,17.93
2022-12-19T00:26:26.951Z,17.27
2022-12-19T00:28:58.178Z,18.87
2022-12-19T00:31:29.346Z,18.77
2022-12-19T00:33:58.724Z,17.47
2022-12-19T00:36:31.246Z,18.43
2022-12-19T00:39:06.300Z,19.07
2022-12-19T00:41:41.808Z,18.37
2022-12-19T00:44:14.039Z,17.23
2022-12-19T00:46:42.686Z,18.77
2022-12-19T00:49:15.271Z,18.57
2022-12-19T00:51:44.829Z,17.80
2022-12-19T00:54:13.161Z,18.77
2022-12-19T00:56:41.583Z,18.77
2022-12-19T00:59:10.467Z,18.53
2022-12-19T01:01:42.251Z,18.00
2022-12-19T01:04:31.239Z,17.90
2022-12-19T01:07:05.619Z,18.23
2022-12-19T01:09:36.342Z,18.93
2022-12-19T01:12:24.642Z,18.50
2022-12-19T01:14:55.792Z,16.70
2022-12-19T01:17:34.734Z,18.87
2022-12-19T01:20:14.780Z,17.93
2022-12-19T01:22:44.430Z,18.80
2022-12-19T01:25:15.350Z,17.73
2022-12-19T01:27:43.689Z,18.03
2022-12-19T01:30:13.902Z,18.63
2022-12-19T01:32:43.555Z,17.57
2022-12-19T01:35:11.806Z,17.27
2022-12-19T01:37:51.382Z,17.73
2022-12-19T01:40:20.275Z,18.87
2022-12-19T01:42:50.560Z,17.87
2022-12-19T01:45:34.318Z,17.20
2022-12-19T01:48:21.310Z,17.53
2022-12-19T01:51:01.938Z,17.73
2022-12-19T01:53:48.596Z,17.30
2022-12-19T01:56:20.361Z,16.87
2022-12-19T01:58:58.941Z,17.63
2022-12-19T02:01:51.108Z,17.83
2022-12-19T02:04:25.043Z,18.13
2022-12-19T02:06:59.354Z,17.03
2022-12-19T02:09:35.459Z,17.53
2022-12-19T02:12:05.194Z,17.40
2022-12-19T02:14:36.268Z,16.93
2022-12-19T02:17:14.469Z,17.23
2022-12-19T02:20:39.652Z,17.77
2022-12-19T02:23:44.247Z,16.67
2022-12-19T02:26:52.168Z,17.00
2022-12-19T02:29:57.690Z,16.90
2022-12-19T02:32:36.314Z,16.93
2022-12-19T02:35:15.775Z,17.20
2022-12-19T02:37:53.008Z,16.70
2022-12-19T02:40:28.813Z,17.67
2022-12-19T02:43:01.494Z,16.90
2022-12-19T02:45:36.418Z,18.40
2022-12-19T02:48:09.223Z,17.17
2022-12-19T02:50:41.929Z,16.97
2022-12-19T02:53:12.562Z,17.70
2022-12-19T02:55:51.669Z,18.70
2022-12-19T02:58:55.845Z,17.90
2022-12-19T03:01:42.788Z,16.63
2022-12-19T03:04:28.604Z,17.70
2022-12-19T03:07:04.936Z,18.03
2022-12-19T03:09:53.716Z,18.83
2022-12-19T03:12:29.960Z,17.20
2022-12-19T03:14:59.942Z,18.50
2022-12-19T03:17:29.513Z,17.50
2022-12-19T03:19:59.823Z,17.53
2022-12-19T03:22:28.255Z,17.37
2022-12-19T03:24:56.517Z,18.80
2022-12-19T03:27:30.269Z,19.00
2022-12-19T03:30:05.685Z,17.43
2022-12-19T03:32:37.565Z,18.13
2022-12-19T03:35:15.542Z,17.27
2022-12-19T03:37:46.475Z,18.63
2022-12-19T03:40:20.210Z,17.73
2022-12-19T03:43:11.246Z,19.27
2022-12-19T03:46:01.622Z,18.10
2022-12-19T03:48:37.579Z,18.40
2022-12-19T03:51:22.173Z,18.00
2022-12-19T03:54:02.033Z,18.23
2022-12-19T03:56:42.552Z,18.80
2022-12-19T03:59:16.770Z,17.57
2022-12-19T04:01:47.028Z,18.37
2022-12-19T04:04:17.535Z,18.50
2022-12-19T04:06:49.106Z,19.03
2022-12-19T04:09:22.840Z,18.40
2022-12-19T04:11:55.478Z,18.57
2022-12-19T04:14:30.539Z,19.10
2022-12-19T04:17:09.501Z,18.87
2022-12-19T04:19:45.033Z,18.03
2022-12-19T04:22:26.504Z,18.80
2022-12-19T04:24:57.012Z,18.73
2022-12-19T04:27:27.250Z,18.30
2022-12-19T04:29:58.358Z,18.17
2022-12-19T04:32:28.671Z,17.67
2022-12-19T04:34:56.955Z,18.17
2022-12-19T04:37:26.909Z,18.30
2022-12-19T04:39:55.249Z,18.10
2022-12-19T04:42:23.453Z,18.27
2022-12-19T04:44:51.694Z,18.67
2022-12-19T04:47:20.033Z,18.43
2022-12-19T04:49:48.358Z,19.67
2022-12-19T04:52:16.595Z,18.77
2022-12-19T04:54:46.304Z,18.30
2022-12-19T04:57:14.694Z,19.07
2022-12-19T04:59:42.920Z,18.50
2022-12-19T05:02:11.254Z,18.60
2022-12-19T05:04:39.682Z,17.90
2022-12-19T05:07:08.550Z,18.10
2022-12-19T05:09:39.863Z,18.60
2022-12-19T05:12:10.143Z,18.03
2022-12-19T05:14:38.344Z,19.10
2022-12-19T05:17:06.651Z,18.50
2022-12-19T05:19:34.823Z,18.47
2022-12-19T05:22:03.069Z,18.97
2022-12-19T05:24:31.739Z,18.57
2022-12-19T05:27:00.425Z,18.67
2022-12-19T05:29:29.976Z,18.10
2022-12-19T05:31:58.567Z,17.83
2022-12-19T05:34:27.268Z,19.63
2022-12-19T05:36:55.864Z,18.63
2022-12-19T05:39:24.532Z,18.63
2022-12-19T05:41:52.762Z,18.20
2022-12-19T05:44:20.954Z,18.57
2022-12-19T05:46:50.608Z,18.43
2022-12-19T05:49:18.951Z,18.30
2022-12-19T05:51:50.749Z,18.30
2022-12-19T05:54:19.000Z,18.77
2022-12-19T05:56:47.350Z,18.33
2022-12-19T05:59:15.599Z,18.77
2022-12-19T06:01:43.871Z,18.47
2022-12-19T06:04:13.625Z,16.83
2022-12-19T06:06:41.916Z,18.33
2022-12-19T06:09:10.134Z,18.47
2022-12-19T06:11:38.404Z,19.37
2022-12-19T06:14:09.833Z,18.27
2022-12-19T06:16:38.207Z,18.40
2022-12-19T06:19:06.633Z,17.40
2022-12-19T06:21:39.766Z,18.67
2022-12-19T06:24:13.838Z,18.77
2022-12-19T06:26:42.439Z,18.93
2022-12-19T06:29:10.778Z,18.80
2022-12-19T06:31:39.133Z,17.67
2022-12-19T06:34:07.573Z,18.60
2022-12-19T06:36:38.621Z,18.10
2022-12-19T06:39:06.952Z,18.00
2022-12-19T06:41:52.760Z,18.27
2022-12-19T06:44:21.083Z,17.07
2022-12-19T06:46:49.293Z,17.60
2022-12-19T06:49:17.491Z,17.43
2022-12-19T06:51:47.492Z,17.80
2022-12-19T06:54:16.224Z,17.67
2022-12-19T06:56:45.307Z,17.23
2022-12-19T06:59:16.782Z,17.07
2022-12-19T07:02:02.548Z,17.13
2022-12-19T07:04:36.992Z,16.63
2022-12-19T07:07:06.732Z,16.67
2022-12-19T07:09:36.323Z,16.93
2022-12-19T07:12:08.266Z,17.20
2022-12-19T07:14:36.577Z,16.70
2022-12-19T07:17:06.254Z,17.90
2022-12-19T07:19:36.083Z,16.60
2022-12-19T07:22:07.537Z,17.27
2022-12-19T07:24:36.944Z,16.83
2022-12-19T07:27:07.676Z,15.33
2022-12-19T07:29:35.935Z,15.60
2022-12-19T07:32:04.492Z,16.87
2022-12-19T07:34:32.871Z,17.77
2022-12-19T07:37:01.162Z,17.47
2022-12-19T07:39:30.761Z,17.23
2022-12-19T07:41:59.030Z,16.73
2022-12-19T07:44:39.888Z,16.50
2022-12-19T07:47:11.283Z,17.17
2022-12-19T07:49:39.629Z,17.33
2022-12-19T07:52:08.342Z,17.50
2022-12-19T07:54:37.987Z,16.20
2022-12-19T07:57:06.287Z,17.40
2022-12-19T07:59:38.902Z,18.47
2022-12-19T08:02:08.024Z,17.47
2022-12-19T08:04:36.498Z,16.67
2022-12-19T08:07:04.854Z,18.10
2022-12-19T08:09:33.118Z,18.80
2022-12-19T08:12:02.893Z,17.53
2022-12-19T08:14:31.327Z,17.27
2022-12-19T08:19:47.852Z,17.67
2022-12-19T08:22:16.097Z,18.20
2022-12-19T08:24:44.628Z,19.03
2022-12-19T08:27:14.230Z,18.93
2022-12-19T08:29:42.562Z,18.03
2022-12-19T08:32:13.356Z,18.73
2022-12-19T08:34:45.715Z,18.87
2022-12-19T08:37:13.852Z,19.27
2022-12-19T08:39:42.125Z,19.00
2022-12-19T08:42:10.310Z,19.50
2022-12-19T08:44:39.915Z,19.60
2022-12-19T08:47:12.672Z,18.17
2022-12-19T08:49:40.997Z,18.70
2022-12-19T08:52:09.560Z,19.57
2022-12-19T08:54:38.097Z,19.30
2022-12-19T08:57:06.293Z,20.07
2022-12-19T08:59:34.503Z,19.13
2022-12-19T09:02:07.203Z,20.37
2022-12-19T09:05:58.413Z,19.43
2022-12-19T09:07:23.881Z,20.47
2022-12-19T09:09:52.068Z,20.83
2022-12-19T09:12:21.357Z,19.97
2022-12-19T09:14:49.555Z,20.30
2022-12-19T09:17:19.241Z,19.87
2022-12-19T09:19:48.258Z,20.20
2022-12-19T09:22:17.635Z,21.03
2022-12-19T09:24:46.759Z,20.67
2022-12-19T09:27:14.989Z,20.40
2022-12-19T09:29:43.846Z,20.23
2022-12-19T09:32:12.240Z,21.07
2022-12-19T09:34:41.992Z,21.60
2022-12-19T09:37:16.688Z,20.57
2022-12-19T09:39:47.269Z,20.27
2022-12-19T09:42:42.206Z,21.83
2022-12-19T09:45:37.537Z,21.00
2022-12-19T09:48:22.433Z,20.10
2022-12-19T09:51:10.105Z,21.80
2022-12-19T09:53:56.756Z,20.63
2022-12-19T09:56:31.386Z,20.67
2022-12-19T09:59:13.754Z,20.80
2022-12-19T10:01:54.692Z,20.27
2022-12-19T10:04:27.648Z,18.63
2022-12-19T10:07:11.736Z,20.23
2022-12-19T10:11:25.670Z,20.20
2022-12-19T10:13:07.668Z,19.17
2022-12-19T10:16:00.165Z,18.70
2022-12-19T10:18:52.648Z,19.67
2022-12-19T10:22:16.414Z,18.30
2022-12-19T10:25:21.289Z,18.00
2022-12-19T10:27:58.856Z,19.23
2022-12-19T10:30:31.946Z,19.97
2022-12-19T10:33:20.355Z,20.43
2022-12-19T10:35:56.216Z,20.13
2022-12-19T10:38:38.329Z,18.57
2022-12-19T10:41:17.412Z,19.87
2022-12-19T10:43:58.646Z,19.53
2022-12-19T10:46:39.668Z,20.00
2022-12-19T10:49:14.903Z,21.13
2022-12-19T10:51:44.021Z,20.07
2022-12-19T10:54:12.359Z,20.83
2022-12-19T10:56:42.089Z,20.37
2022-12-19T10:59:18.699Z,22.47
2022-12-19T11:02:01.248Z,21.43
2022-12-19T11:04:34.844Z,19.67
2022-12-19T11:07:19.745Z,21.23
2022-12-19T11:10:02.696Z,20.17
2022-12-19T11:16:44.897Z,19.80
2022-12-19T11:21:57.277Z,20.40
2022-12-19T11:29:17.073Z,19.90
2022-12-19T11:29:42.453Z,20.63
2022-12-19T11:30:34.368Z,21.10
2022-12-19T11:30:59.581Z,20.33
2022-12-19T11:33:19.493Z,20.63
2022-12-19T11:35:51.661Z,21.10
2022-12-19T11:38:33.620Z,20.53
2022-12-19T11:41:13.914Z,20.17
2022-12-19T11:43:53.949Z,20.90
2022-12-19T11:46:38.452Z,20.83
2022-12-19T11:49:20.435Z,20.60
2022-12-19T11:51:57.387Z,20.93
2022-12-19T11:54:35.776Z,20.77
2022-12-19T11:57:04.451Z,21.50
2022-12-19T11:59:37.540Z,20.63
2022-12-19T12:02:40.959Z,22.10
2022-12-19T12:05:38.503Z,21.93
2022-12-19T12:10:15.300Z,21.60
2022-12-19T12:16:00.744Z,20.53
2022-12-19T12:26:13.248Z,21.97
2022-12-19T12:31:03.929Z,21.13
2022-12-19T12:31:06.436Z,20.80
2022-12-19T12:31:51.153Z,21.20
2022-12-19T12:31:51.153Z,20.93
2022-12-19T12:35:12.467Z,21.13
2022-12-19T12:35:56.809Z,19.77
2022-12-19T12:39:29.807Z,23.27
2022-12-19T12:42:18.796Z,23.97
2022-12-19T12:44:51.325Z,19.73
2022-12-19T12:47:24.408Z,19.50
2022-12-19T12:49:59.795Z,19.47
2022-12-19T12:52:35.190Z,20.07
2022-12-19T12:55:07.170Z,19.53
2022-12-19T12:57:38.601Z,19.97
2022-12-19T13:00:24.772Z,20.57
2022-12-19T13:03:05.672Z,20.40
2022-12-19T13:05:55.878Z,21.77
2022-12-19T13:08:49.014Z,20.93
2022-12-19T13:11:57.298Z,20.07
2022-12-19T13:14:49.134Z,20.33
2022-12-19T13:17:45.979Z,20.63
2022-12-19T13:20:47.154Z,19.27
2022-12-19T13:23:43.712Z,19.07
2022-12-19T13:26:46.840Z,19.47
2022-12-19T13:29:55.505Z,19.90
2022-12-19T13:32:24.864Z,18.90
2022-12-19T13:35:07.024Z,20.90
2022-12-19T13:39:57.476Z,19.80
2022-12-19T13:40:59.844Z,20.10
2022-12-19T13:43:58.493Z,20.67
2022-12-19T13:46:41.426Z,21.30
2022-12-19T13:49:18.123Z,20.83
2022-12-19T13:51:53.329Z,22.80
2022-12-19T13:54:28.314Z,20.97
2022-12-19T13:57:09.337Z,21.83
2022-12-19T13:59:48.480Z,22.13
2022-12-19T14:02:44.697Z,23.00
2022-12-19T14:06:17.779Z,23.17
2022-12-19T14:08:26.491Z,23.90
2022-12-19T14:11:40.455Z,22.33
2022-12-19T14:14:16.115Z,23.70
2022-12-19T14:16:48.220Z,22.93
2022-12-19T14:19:23.087Z,23.93
2022-12-19T14:22:11.705Z,23.63
2022-12-19T14:25:10.169Z,23.13
2022-12-19T14:28:18.785Z,24.50
2022-12-19T14:30:57.736Z,23.10
2022-12-19T14:33:44.186Z,23.70
2022-12-19T14:36:26.526Z,24.37
2022-12-19T14:39:25.206Z,25.00
2022-12-19T14:42:06.229Z,25.07
2022-12-19T14:51:43.041Z,23.67
2022-12-19T14:52:51.949Z,23.87
2022-12-19T14:54:23.152Z,24.73
2022-12-19T14:54:50.326Z,23.80
2022-12-19T14:56:46.653Z,24.30
2022-12-19T14:59:06.570Z,24.80
2022-12-19T15:01:37.788Z,25.83
2022-12-19T15:04:50.919Z,26.37
2022-12-19T15:07:12.528Z,24.73
2022-12-19T15:11:08.479Z,26.07
2022-12-19T15:14:48.361Z,25.93
2022-12-19T15:16:04.468Z,26.03
2022-12-19T15:18:42.323Z,25.50
2022-12-19T15:21:13.665Z,25.77
2022-12-19T15:23:42.315Z,26.00
2022-12-19T15:26:15.988Z,26.70
2022-12-19T15:28:50.627Z,26.17
2022-12-19T15:31:32.087Z,26.10
2022-12-19T15:36:54.228Z,26.13
2022-12-19T15:39:24.741Z,27.67
2022-12-19T15:41:56.079Z,27.40
2022-12-19T15:44:32.236Z,26.30
2022-12-19T15:47:01.156Z,25.33
2022-12-19T15:49:31.524Z,26.20
2022-12-19T15:51:59.897Z,27.17
2022-12-19T15:57:29.819Z,26.80
2022-12-19T16:00:01.121Z,26.80
2022-12-19T16:03:12.755Z,26.57
2022-12-19T16:05:24.039Z,26.73
2022-12-19T16:07:52.801Z,27.60
2022-12-19T16:10:21.940Z,27.07
2022-12-19T16:12:55.242Z,28.13
2022-12-19T16:15:29.960Z,27.23
2022-12-19T16:18:02.884Z,27.13
2022-12-19T16:20:37.778Z,28.10
2022-12-19T16:23:06.250Z,27.67
2022-12-19T16:25:39.762Z,27.77
2022-12-19T16:28:19.259Z,27.93
2022-12-19T16:30:47.915Z,27.63
2022-12-19T16:33:22.583Z,28.77
2022-12-19T16:36:08.313Z,28.77
2022-12-19T16:38:37.298Z,26.43
2022-12-19T16:41:05.766Z,27.43
2022-12-19T16:43:38.859Z,27.07
2022-12-19T16:46:09.060Z,27.13
2022-12-19T16:48:37.839Z,26.30
2022-12-19T16:51:19.896Z,26.23
2022-12-19T16:53:48.817Z,26.70
2022-12-19T16:56:25.921Z,26.57
2022-12-19T16:58:54.606Z,25.37
2022-12-19T17:01:23.266Z,24.77
2022-12-19T17:03:52.736Z,24.20
2022-12-19T17:06:23.377Z,24.07
2022-12-19T17:08:51.577Z,25.17
2022-12-19T17:11:24.023Z,25.80
2022-12-19T17:13:58.115Z,24.60
2022-12-19T17:16:26.614Z,23.90
2022-12-19T17:18:54.926Z,22.93
2022-12-19T17:21:24.673Z,22.57
2022-12-19T17:23:54.402Z,22.53
2022-12-19T17:26:22.637Z,24.00
2022-12-19T17:28:50.971Z,23.17
2022-12-19T17:31:26.855Z,23.23
2022-12-19T17:33:58.228Z,24.40
2022-12-19T17:36:37.024Z,22.63
2022-12-19T17:39:18.948Z,23.83
2022-12-19T17:41:47.569Z,22.37
2022-12-19T17:44:15.968Z,23.60
2022-12-19T17:46:44.964Z,22.97
2022-12-19T17:49:19.185Z,22.03
2022-12-19T17:51:53.572Z,20.93
2022-12-19T17:54:24.201Z,21.40
2022-12-19T17:56:53.236Z,20.77
2022-12-19T17:59:21.704Z,22.57
2022-12-19T18:01:50.213Z,20.90
2022-12-19T18:04:21.468Z,20.50
2022-12-19T18:06:51.586Z,20.27
2022-12-19T18:09:20.891Z,22.43
2022-12-19T18:11:50.255Z,21.30
2022-12-19T18:14:19.549Z,22.47
2022-12-19T18:16:50.937Z,21.50
2022-12-19T18:19:22.204Z,20.80
2022-12-19T18:21:51.999Z,20.33
2022-12-19T18:24:20.374Z,20.40
2022-12-19T18:26:48.721Z,20.47
2022-12-19T18:29:17.295Z,20.07
2022-12-19T18:31:50.998Z,19.90
2022-12-19T18:34:23.587Z,20.37
2022-12-19T18:36:54.653Z,20.37
2022-12-19T18:39:26.072Z,20.23
2022-12-19T18:41:55.315Z,19.63
2022-12-19T18:44:23.785Z,19.73
2022-12-19T18:46:53.566Z,18.07
2022-12-19T18:49:22.786Z,19.30
2022-12-19T18:51:52.684Z,19.63
2022-12-19T18:54:23.545Z,19.03
2022-12-19T18:56:52.794Z,18.47
2022-12-19T18:59:21.378Z,18.20
2022-12-19T19:01:50.139Z,17.77
2022-12-19T19:04:18.832Z,18.83
2022-12-19T19:06:52.329Z,18.67
2022-12-19T19:09:23.963Z,18.10
2022-12-19T19:12:04.649Z,17.17
2022-12-19T19:14:32.906Z,17.93
2022-12-19T19:17:01.262Z,17.60
2022-12-19T19:19:29.559Z,17.97
2022-12-19T19:21:58.074Z,17.40
2022-12-19T19:24:28.677Z,16.77
2022-12-19T19:26:57.023Z,16.63
2022-12-19T19:29:25.303Z,17.40
2022-12-19T19:31:54.276Z,18.10
2022-12-19T19:34:29.993Z,16.63
2022-12-19T19:37:03.613Z,16.63
2022-12-19T19:39:35.539Z,16.70
2022-12-19T19:42:04.295Z,16.27
2022-12-19T19:44:32.893Z,16.77
2022-12-19T19:47:01.921Z,16.73
2022-12-19T19:49:30.356Z,16.33
2022-12-19T19:52:02.997Z,15.50
2022-12-19T19:54:33.481Z,16.30
2022-12-19T19:57:01.842Z,15.13
2022-12-19T19:59:31.761Z,15.97
2022-12-19T20:02:00.536Z,15.90
2022-12-19T20:04:29.856Z,15.50
2022-12-19T20:06:58.268Z,15.70
2022-12-19T20:09:26.674Z,14.87
2022-12-19T20:11:57.533Z,14.57
2022-12-19T20:14:26.634Z,14.60
2022-12-19T20:16:55.081Z,14.03
2022-12-19T20:19:24.355Z,15.43
2022-12-19T20:21:52.685Z,14.37
2022-12-19T20:24:20.899Z,14.27
2022-12-19T20:26:49.360Z,14.57
2022-12-19T20:29:18.985Z,13.97
2022-12-19T20:31:47.339Z,14.00
2022-12-19T20:34:16.002Z,13.37
2022-12-19T20:36:44.510Z,13.80
2022-12-19T20:39:12.843Z,12.67
2022-12-19T20:41:41.025Z,13.77
2022-12-19T20:44:09.447Z,12.67
2022-12-19T20:46:39.129Z,12.37
2022-12-19T20:49:07.772Z,12.20
2022-12-19T20:51:36.368Z,12.70
2022-12-19T20:54:05.661Z,13.07
2022-12-19T20:56:35.144Z,13.17
2022-12-19T20:59:03.585Z,12.00
2022-12-19T21:01:32.208Z,12.60
2022-12-19T21:04:02.297Z,12.00
2022-12-19T21:06:32.266Z,11.23
2022-12-19T21:09:00.758Z,12.13
2022-12-19T21:11:29.469Z,12.80
2022-12-19T21:13:57.754Z,11.50
2022-12-19T21:16:26.536Z,12.20
2022-12-19T21:18:54.951Z,12.30
2022-12-19T21:21:27.608Z,11.93
2022-12-19T21:23:56.822Z,11.17
2022-12-19T21:26:26.807Z,12.67
2022-12-19T21:28:57.755Z,12.03
2022-12-19T21:31:29.641Z,12.30
2022-12-19T21:34:01.928Z,12.07
2022-12-19T21:36:32.344Z,13.40
2022-12-19T21:39:03.068Z,12.73
2022-12-19T21:41:32.383Z,11.70
2022-12-19T21:44:01.755Z,11.80
2022-12-19T21:46:33.836Z,12.60
2022-12-19T21:49:03.607Z,12.47
2022-12-19T21:51:33.712Z,11.80
2022-12-19T21:54:04.861Z,11.60
2022-12-19T21:56:35.649Z,12.47
2022-12-19T21:59:07.748Z,12.13
2022-12-19T22:01:36.337Z,11.97
2022-12-19T22:04:07.387Z,11.73
2022-12-19T22:06:38.958Z,12.10
2022-12-19T22:09:12.593Z,12.37
2022-12-19T22:11:40.977Z,12.83
2022-12-19T22:14:11.378Z,13.37
2022-12-19T22:16:39.876Z,12.83
2022-12-19T22:19:08.738Z,12.77
2022-12-19T22:21:38.378Z,12.27
2022-12-19T22:24:07.210Z,12.77
2022-12-19T22:26:36.330Z,11.90
2022-12-19T22:29:09.463Z,11.23
2022-12-19T22:31:39.617Z,11.87
2022-12-19T22:34:11.172Z,12.77
2022-12-19T22:36:42.906Z,12.03
2022-12-19T22:39:16.319Z,13.23
2022-12-19T22:41:45.971Z,12.27
2022-12-19T22:44:19.392Z,12.60
2022-12-19T22:46:48.437Z,12.27
2022-12-19T22:49:17.050Z,11.60
2022-12-19T22:51:46.923Z,12.23
2022-12-19T22:54:15.971Z,12.30
2022-12-19T22:56:44.447Z,11.87
2022-12-19T22:59:16.545Z,12.27
2022-12-19T23:01:45.092Z,11.43
2022-12-19T23:04:17.470Z,12.40
2022-12-19T23:06:47.327Z,12.23
2022-12-19T23:09:19.056Z,12.10
2022-12-19T23:11:50.482Z,11.17
2022-12-19T23:14:21.161Z,11.90
2022-12-19T23:16:49.732Z,11.10
2022-12-19T23:19:19.208Z,12.00
2022-12-19T23:21:48.776Z,11.87
2022-12-19T23:24:17.092Z,11.13
2022-12-19T23:26:45.753Z,11.47
2022-12-19T23:29:16.571Z,11.53
2022-12-19T23:31:47.606Z,10.53
2022-12-19T23:34:16.846Z,12.00
2022-12-19T23:37:10.233Z,11.63
2022-12-19T23:39:35.579Z,11.27
2022-12-19T23:42:04.052Z,10.53
2022-12-19T23:44:32.444Z,10.97
2022-12-19T23:47:03.299Z,11.80
2022-12-19T23:49:33.312Z,11.67
2022-12-19T23:52:03.404Z,11.27
2022-12-19T23:54:32.157Z,10.63
2022-12-19T23:57:01.788Z,10.93
2022-12-19T23:59:31.048Z,10.37
